Time;durP1;ratioP1;P1;durP2;ratioP2;P2;SDS_P1;SDS_P2;PMS_P1;PMS_P2;Temp;Humidity;BMP_temperature;BMP_pressure;BME280_temperature;BME280_humidity;BME280_pressure;Samples;Min_cycle;Max_cycle;Signal;HPM_P1;HPM_P2
2021/12/17 00:00:25;;;;;;;8.25;4.63;;;10.00;64.50;;;8.44;68.47;103273.63;8325017;28;20124;-83
2021/12/17 00:04:55;;;;;;;5.60;3.97;;;10.00;64.60;;;8.39;68.71;103263.22;8316673;28;20120;-84
2021/12/17 00:09:16;;;;;;;6.00;3.55;;;10.00;64.40;;;8.34;68.48;103244.09;8308722;28;20588;-84
2021/12/17 00:13:41;;;;;;;5.85;3.88;;;10.00;64.50;;;8.35;68.86;103238.91;8313855;28;20043;-84
2021/12/17 00:18:13;;;;;;;10.23;4.60;;;10.00;64.40;;;8.34;68.84;103237.16;8343199;28;20116;-83
2021/12/17 00:55:10;;;;;;;4.82;4.07;;;9.90;64.20;;;8.27;68.50;103240.69;8338631;28;20036;-83
2021/12/17 00:59:32;;;;;;;5.03;3.65;;;9.90;64.10;;;8.26;68.73;103254.56;8310616;28;20576;-84
2021/12/17 01:03:56;;;;;;;7.28;3.63;;;9.80;64.10;;;8.29;68.49;103256.28;8346469;28;20128;-84
2021/12/17 01:08:18;;;;;;;7.93;3.60;;;9.80;64.10;;;8.22;68.79;103262.41;8319729;28;20124;-84
2021/12/17 01:12:41;;;;;;;10.45;4.38;;;9.80;64.10;;;8.22;68.32;103258.06;8326247;28;20473;-84
2021/12/17 01:17:17;;;;;;;9.60;3.42;;;9.80;64.10;;;8.16;68.22;103255.50;8305578;28;20124;-84
2021/12/17 01:36:37;;;;;;;9.35;4.15;;;9.80;64.20;;;8.19;68.17;103271.09;8339019;28;20036;-84
2021/12/17 01:41:27;;;;;;;7.50;3.45;;;9.80;64.20;;;8.17;68.27;103259.81;8330640;28;20124;-84
2021/12/17 01:45:49;;;;;;;11.70;3.28;;;9.80;64.10;;;8.19;68.29;103258.06;8326265;28;20119;-85
2021/12/17 01:59:39;;;;;;;7.90;3.58;;;9.70;64.10;;;8.14;68.32;103252.88;8328082;28;20124;-84
2021/12/17 02:04:04;;;;;;;10.60;4.85;;;9.70;64.10;;;8.13;68.28;103242.50;8355614;28;20798;-85
2021/12/17 02:08:26;;;;;;;5.97;3.53;;;9.70;64.10;;;8.13;68.53;103239.91;8332225;28;20113;-84
2021/12/17 02:19:26;;;;;;;7.10;3.53;;;9.80;64.20;;;8.19;68.80;103255.47;8338133;28;20534;-85
2021/12/17 02:23:19;;;;;;;6.53;2.85;;;9.80;64.10;;;8.15;68.18;103244.19;8336013;28;20128;-84
2021/12/17 02:32:09;;;;;;;7.55;3.60;;;9.80;64.00;;;8.14;68.77;103255.47;8320923;28;20132;-83
2021/12/17 02:36:34;;;;;;;6.93;3.15;;;9.80;64.10;;;8.14;68.28;103265.03;8344574;28;20462;-85
2021/12/17 02:45:54;;;;;;;4.70;2.95;;;9.70;64.00;;;8.16;68.53;103261.56;8338234;28;20468;-83
2021/12/17 02:50:16;;;;;;;5.55;2.80;;;9.70;64.10;;;8.16;68.52;103245.09;8316270;28;20043;-85
2021/12/17 02:54:39;;;;;;;12.13;3.50;;;9.70;64.00;;;8.11;68.25;103246.84;8335468;28;20036;-85
2021/12/17 02:59:02;;;;;;;7.15;2.92;;;9.70;64.00;;;8.07;68.27;103229.50;8347750;28;20096;-84
2021/12/17 03:03:27;;;;;;;6.38;3.05;;;9.70;63.80;;;8.14;68.62;103231.19;8332245;28;20107;-85
2021/12/17 03:07:50;;;;;;;5.23;2.80;;;9.60;63.80;;;8.10;68.59;103225.16;8350595;28;20463;-84
2021/12/17 03:12:18;;;;;;;6.57;3.38;;;9.70;63.90;;;8.11;68.44;103226.88;8353411;28;20139;-84
2021/12/17 03:16:54;;;;;;;3.58;2.42;;;9.70;63.80;;;7.99;68.53;103206.09;8312895;28;20120;-84
2021/12/17 03:26:06;;;;;;;7.10;2.67;;;9.70;63.80;;;8.07;68.51;103229.50;8343271;28;20124;-84
2021/12/17 03:30:28;;;;;;;5.95;2.60;;;9.70;63.80;;;8.07;68.42;103219.09;8341618;28;20114;-84
2021/12/17 03:34:51;;;;;;;4.03;2.75;;;9.70;63.80;;;8.16;68.29;103250.28;8335026;28;20043;-84
2021/12/17 03:39:13;;;;;;;6.13;3.55;;;9.60;63.70;;;8.15;68.56;103233.78;8333187;28;20119;-84
2021/12/17 03:43:34;;;;;;;12.35;3.28;;;9.70;63.80;;;8.10;68.23;103227.75;8331196;28;20119;-84
2021/12/17 03:47:57;;;;;;;6.85;2.80;;;9.70;63.80;;;8.10;68.23;103219.06;8334838;28;20507;-85
2021/12/17 03:52:20;;;;;;;9.55;3.53;;;9.70;63.70;;;8.08;68.53;103221.69;8335324;28;20119;-85
2021/12/17 03:56:43;;;;;;;4.85;2.63;;;9.70;63.60;;;8.13;68.29;103225.13;8330576;28;20464;-82
2021/12/17 04:01:05;;;;;;;6.57;2.88;;;9.70;63.70;;;8.14;68.44;103242.47;8323201;28;20116;-83
2021/12/17 04:05:27;;;;;;;5.90;2.92;;;9.70;64.40;;;7.84;68.19;103180.16;8351617;23;20412;-80
2021/12/17 04:10:19;;;;;;;5.30;2.83;;;9.70;63.70;;;8.14;68.62;103231.19;8345503;28;20130;-81
2021/12/17 04:14:52;;;;;;;4.82;2.95;;;9.70;63.80;;;7.84;68.52;103180.16;8350981;28;20037;-80
2021/12/17 04:19:13;;;;;;;9.57;3.15;;;9.70;63.70;;;8.14;68.08;103237.25;8358322;28;20048;-81
2021/12/17 04:23:35;;;;;;;4.22;2.53;;;9.70;63.60;;;8.13;68.13;103245.97;8343320;28;20124;-80
2021/12/17 04:27:58;;;;;;;5.07;2.65;;;9.70;63.60;;;8.15;68.30;103240.72;8349605;28;20129;-79
2021/12/17 04:32:24;;;;;;;7.10;2.73;;;9.60;63.50;;;8.13;68.26;103238.16;8362762;28;20147;-81
2021/12/17 04:36:49;;;;;;;3.92;2.60;;;9.80;63.60;;;8.14;68.13;103233.81;8344746;28;20367;-80
2021/12/17 04:45:48;;;;;;;4.55;2.47;;;9.70;63.40;;;8.05;68.60;103223.44;8354644;28;20584;-84
2021/12/17 04:59:33;;;;;;;10.05;3.72;;;9.70;63.50;;;8.05;68.26;103233.84;8352896;28;20041;-81
2021/12/17 05:03:56;;;;;;;9.25;4.20;;;9.50;63.30;;;8.00;68.65;103218.25;8357144;28;20063;-81
2021/12/17 05:08:21;;;;;;;8.52;2.75;;;9.70;63.60;;;8.04;68.47;103226.91;8329471;28;20207;-81
2021/12/17 05:22:10;;;;;;;7.68;3.10;;;9.60;63.50;;;7.96;68.54;103216.53;8367118;28;20120;-81
2021/12/17 05:26:32;;;;;;;8.80;3.42;;;9.60;63.40;;;8.01;68.19;103214.78;8332785;28;20526;-80
2021/12/17 05:30:56;;;;;;;6.18;3.40;;;9.70;63.60;;;8.07;68.15;103232.09;8347272;28;20132;-81
2021/12/17 05:35:18;;;;;;;5.45;2.95;;;9.70;63.50;;;8.02;68.08;103223.44;8324946;28;20103;-81
2021/12/17 05:39:40;;;;;;;5.45;3.08;;;9.60;63.40;;;8.01;68.54;103232.97;8355260;28;20120;-83
2021/12/17 05:44:05;;;;;;;5.82;3.03;;;9.50;63.40;;;8.03;68.29;103233.84;8350956;28;20469;-80
2021/12/17 05:48:28;;;;;;;3.90;3.05;;;9.60;63.40;;;8.03;68.21;103243.41;8330364;28;20564;-81
2021/12/17 05:52:50;;;;;;;4.82;3.10;;;9.60;63.50;;;8.08;68.21;103249.47;8334937;28;20127;-77
2021/12/17 05:57:12;;;;;;;6.10;2.97;;;9.50;63.40;;;7.77;68.05;103200.13;8369769;28;20124;-85
2021/12/17 06:01:37;;;;;;;5.25;3.00;;;9.60;64.10;;;8.02;68.16;103246.84;8357226;28;20100;-81
2021/12/17 06:05:59;;;;;;;4.25;2.45;;;9.60;63.40;;;8.02;68.16;103246.84;8319479;28;20041;-76
2021/12/17 06:10:22;;;;;;;5.45;3.03;;;9.60;63.40;;;8.07;68.26;103260.72;8334756;28;20039;-79
2021/12/17 06:14:44;;;;;;;6.15;3.22;;;9.70;63.40;;;8.02;68.17;103262.47;8327416;28;20048;-78
2021/12/17 06:19:07;;;;;;;5.45;3.65;;;9.60;63.30;;;7.97;68.31;103246.91;8347914;28;20047;-78
2021/12/17 06:23:29;;;;;;;5.97;2.95;;;9.50;63.20;;;7.97;68.23;103247.75;8320895;28;20538;-78
2021/12/17 06:27:51;;;;;;;7.50;3.42;;;9.50;63.30;;;7.98;68.19;103240.81;8347613;28;20039;-81
2021/12/17 06:32:13;;;;;;;7.20;2.92;;;9.60;63.40;;;8.02;68.18;103260.75;8326582;28;20039;-81
2021/12/17 06:36:36;;;;;;;6.72;2.92;;;9.50;63.30;;;7.94;68.07;103254.72;8347525;28;20040;-81
2021/12/17 06:40:58;;;;;;;6.22;2.88;;;9.60;63.40;;;7.93;67.95;103245.16;8326816;28;20576;-79
2021/12/17 06:45:35;;;;;;;5.97;2.78;;;9.50;63.30;;;7.97;68.29;103260.75;8322329;28;20484;-80
2021/12/17 07:00:08;;;;;;;6.55;3.95;;;9.40;63.20;;;7.85;68.29;103252.13;8307136;28;20044;-80
2021/12/17 07:10:14;;;;;;;8.07;3.67;;;9.40;63.20;;;7.81;67.95;103277.28;8347242;28;20041;-82
2021/12/17 07:28:57;;;;;;;7.47;3.58;;;9.40;63.30;;;7.79;67.96;103317.19;8354907;28;20044;-81
2021/12/17 07:33:17;;;;;;;6.18;2.55;;;9.40;63.30;;;7.80;67.97;103301.53;8332346;28;20055;-78
2021/12/17 07:42:42;;;;;;;4.70;2.67;;;9.40;63.40;;;7.69;67.93;103270.34;8353899;28;20040;-86
2021/12/17 07:47:14;;;;;;;6.50;2.58;;;9.30;63.30;;;7.76;67.96;103266.03;8341269;28;20047;-85
2021/12/17 07:51:39;;;;;;;8.53;3.00;;;9.40;63.40;;;7.68;68.08;103255.63;8340965;28;20044;-84
2021/12/17 07:56:07;;;;;;;5.82;3.00;;;9.30;63.30;;;7.82;68.29;103279.00;8348117;28;20040;-84
2021/12/17 08:00:32;;;;;;;9.60;3.92;;;9.30;63.40;;;7.80;68.35;103264.28;8314625;28;20039;-84
2021/12/17 08:04:57;;;;;;;6.03;3.20;;;9.40;63.50;;;7.70;68.25;103240.03;8327750;28;20047;-83
2021/12/17 08:09:20;;;;;;;5.15;2.78;;;9.40;63.40;;;7.75;68.24;103266.91;8330358;28;20388;-84
2021/12/17 08:13:45;;;;;;;6.05;2.97;;;9.30;63.30;;;7.78;68.19;103279.91;8328030;28;20041;-83
2021/12/17 08:18:55;;;;;;;8.23;2.97;;;9.40;63.40;;;7.71;68.30;103280.78;8344446;28;20032;-81
2021/12/17 08:23:32;;;;;;;4.10;2.58;;;9.30;63.40;;;7.74;68.10;103294.63;8349509;28;20384;-84
2021/12/17 08:28:03;;;;;;;5.05;2.92;;;9.20;63.40;;;7.76;68.17;103292.03;8354316;28;20036;-84
2021/12/17 08:32:25;;;;;;;7.05;2.75;;;9.30;63.50;;;7.61;67.64;103264.31;8341064;28;20067;-86
2021/12/17 08:36:52;;;;;;;3.97;2.38;;;9.30;63.70;;;7.70;68.17;103287.72;8328804;28;20042;-83
2021/12/17 08:41:14;;;;;;;3.70;2.17;;;9.30;63.70;;;7.79;68.59;103310.22;8341330;28;20040;-79
2021/12/17 08:45:36;;;;;;;3.83;2.15;;;9.20;63.70;;;7.84;68.20;103305.03;8344077;28;20041;-82
2021/12/17 08:50:22;;;;;;;3.45;2.28;;;9.40;63.60;;;7.73;68.14;103287.69;8331249;28;20084;-82
2021/12/17 08:54:44;;;;;;;5.30;2.58;;;9.40;63.50;;;7.76;67.88;103308.50;8321756;28;20045;-82
2021/12/17 08:59:08;;;;;;;4.40;2.40;;;9.40;63.60;;;7.70;67.95;103297.25;8330839;28;20041;-82
2021/12/17 09:03:41;;;;;;;7.05;3.60;;;9.30;63.40;;;7.79;68.11;103306.78;8315284;28;20037;-83
2021/12/17 09:08:21;;;;;;;3.40;2.25;;;9.40;63.30;;;7.75;68.10;103314.59;8337672;28;20340;-82
2021/12/17 09:12:49;;;;;;;5.45;2.80;;;9.40;63.30;;;7.78;68.20;103312.81;8352783;28;20043;-83
2021/12/17 09:17:11;;;;;;;4.68;1.83;;;9.40;63.30;;;7.81;68.55;103313.72;8338180;28;20047;-82
2021/12/17 09:21:34;;;;;;;6.53;2.90;;;9.40;63.30;;;7.78;68.09;103311.13;8340533;28;20041;-82
2021/12/17 09:26:04;;;;;;;5.93;2.20;;;9.40;63.30;;;7.74;68.02;103299.84;8354928;28;20041;-82
2021/12/17 09:30:26;;;;;;;4.70;2.10;;;9.40;63.30;;;7.83;68.27;103322.38;8328837;28;20029;-83
2021/12/17 09:34:47;;;;;;;4.38;2.22;;;9.30;63.20;;;7.82;68.36;103322.38;8334690;28;21565;-82
2021/12/17 09:39:09;;;;;;;5.03;2.47;;;9.40;63.40;;;7.87;68.33;103325.84;8343073;28;20033;-83
2021/12/17 09:43:35;;;;;;;7.40;2.67;;;9.50;63.50;;;7.84;68.21;103315.44;8330549;28;20039;-82
2021/12/17 09:47:57;;;;;;;;;;;9.40;63.40;;;7.87;68.19;103326.69;8354935;28;20056;-81
2021/12/17 09:52:19;;;;;;;3.97;2.53;;;9.40;63.40;;;7.82;68.06;103319.78;8325798;28;19912;-83
2021/12/17 09:56:41;;;;;;;5.13;2.33;;;9.50;63.20;;;7.81;68.37;103316.31;8348737;28;20474;-82
2021/12/17 10:01:04;;;;;;;2.72;2.05;;;9.50;63.00;;;7.85;68.25;103333.63;8352553;28;20086;-82
2021/12/17 10:05:31;;;;;;;5.28;1.88;;;9.40;63.00;;;7.85;68.19;103323.22;8383733;22;20081;-85
2021/12/17 10:09:56;;;;;;;2.95;2.13;;;9.40;63.20;;;7.84;68.15;103333.66;8461479;27;20061;-85
2021/12/17 10:14:24;;;;;;;2.30;1.95;;;9.50;63.30;;;7.89;68.04;103335.38;8471892;27;20031;-84
2021/12/17 10:18:48;;;;;;;3.42;1.83;;;9.50;63.00;;;7.89;68.38;103326.69;8434480;27;20045;-85
2021/12/17 10:23:12;;;;;;;4.90;1.98;;;9.50;62.90;;;7.85;67.93;103323.22;8439206;27;20028;-85
2021/12/17 10:27:38;;;;;;;4.10;2.03;;;9.50;63.00;;;7.87;68.26;103325.84;8439843;27;20406;-84
2021/12/17 10:32:00;;;;;;;1.67;1.58;;;9.50;63.00;;;7.92;68.44;103317.16;8412991;27;20816;-85
2021/12/17 10:36:37;;;;;;;2.92;1.70;;;9.60;63.20;;;7.87;68.03;103315.44;8472932;27;20420;-85
2021/12/17 10:41:08;;;;;;;3.72;2.05;;;9.60;62.80;;;7.74;68.18;103278.16;8454393;27;20036;-85
2021/12/17 10:45:41;;;;;;;5.35;2.05;;;9.60;62.90;;;7.95;68.20;103313.69;8431232;27;20036;-84
2021/12/17 10:50:03;;;;;;;4.20;2.38;;;9.50;62.80;;;7.91;68.23;103312.81;8443266;27;20046;-84
2021/12/17 10:54:26;;;;;;;3.65;2.13;;;9.60;62.50;;;8.00;68.14;103330.16;8452594;27;20032;-85
2021/12/17 10:59:06;;;;;;;4.03;1.83;;;9.60;62.60;;;8.00;68.55;103322.34;8439448;27;20479;-85
2021/12/17 11:03:29;;;;;;;3.50;2.10;;;9.60;62.60;;;8.08;68.34;103319.72;8437848;27;20031;-84
2021/12/17 11:07:52;;;;;;;5.20;2.05;;;9.60;62.70;;;7.97;67.90;103305.00;8447414;27;20398;-85
2021/12/17 11:12:23;;;;;;;2.92;1.92;;;9.70;62.60;;;8.06;68.18;103332.72;8432070;28;20045;-84
2021/12/17 11:16:45;;;;;;;3.58;1.65;;;9.70;62.50;;;8.09;68.03;103337.06;8447918;27;20494;-85
2021/12/17 11:21:06;;;;;;;4.40;1.98;;;9.60;62.50;;;8.06;67.92;103327.50;8445596;27;20038;-85
2021/12/17 11:25:28;;;;;;;6.28;2.97;;;9.70;62.70;;;8.08;68.29;103327.53;8443870;27;20039;-84
2021/12/17 11:29:50;;;;;;;2.67;1.83;;;9.70;62.50;;;7.94;67.96;103284.19;8448303;27;20040;-85
2021/12/17 11:34:12;;;;;;;2.80;1.90;;;9.70;62.50;;;8.10;68.05;103323.16;8437796;27;20818;-84
2021/12/17 11:39:20;;;;;;;2.47;1.98;;;9.70;62.50;;;8.15;68.00;103337.03;8442778;27;20440;-84
2021/12/17 11:44:12;;;;;;;3.95;1.17;;;9.70;62.40;;;8.19;68.10;103339.63;8418564;27;20043;-84
2021/12/17 11:48:34;;;;;;;2.97;1.80;;;9.70;62.20;;;8.08;67.73;103319.72;8471812;27;20127;-84
2021/12/17 11:52:56;;;;;;;1.52;1.17;;;9.80;62.10;;;8.14;68.04;103317.09;8439408;27;20471;-84
2021/12/17 11:57:18;;;;;;;3.50;1.70;;;9.80;62.30;;;8.01;67.83;103302.38;8419408;27;20050;-84
2021/12/17 12:02:05;;;;;;;3.00;1.23;;;9.80;62.30;;;8.23;68.09;103335.25;8419775;27;20502;-83
2021/12/17 12:06:36;;;;;;;2.38;1.80;;;9.80;62.20;;;8.29;67.76;103335.25;8425713;27;20035;-83
2021/12/17 12:11:13;;;;;;;5.47;1.63;;;9.90;62.30;;;8.31;67.97;103330.91;8415493;27;20024;-84
2021/12/17 12:15:37;;;;;;;2.92;1.80;;;9.90;62.10;;;8.26;67.64;103318.78;8409932;27;20040;-83
2021/12/17 12:20:30;;;;;;;2.45;1.85;;;9.90;62.10;;;8.33;67.87;103315.28;8428330;28;20058;-83
2021/12/17 12:25:28;;;;;;;2.55;1.70;;;9.90;62.90;;;8.25;67.97;103299.69;8420362;27;20127;-83
2021/12/17 12:29:56;;;;;;;3.15;1.60;;;9.90;62.00;;;8.28;68.10;103284.06;8417542;27;20036;-83
2021/12/17 12:34:33;;;;;;;2.08;1.52;;;9.90;62.10;;;8.03;67.97;103262.47;8428931;27;20031;-84
2021/12/17 12:39:22;;;;;;;3.08;1.70;;;9.90;62.20;;;8.22;67.75;103302.31;8432595;27;20042;-84
2021/12/17 12:43:48;;;;;;;2.75;1.55;;;9.90;61.80;;;8.23;67.89;103298.81;8419396;27;20112;-84
2021/12/17 12:48:47;;;;;;;2.58;1.90;;;9.90;61.90;;;8.32;68.18;103306.63;8436646;27;20221;-83
2021/12/17 12:53:11;;;;;;;3.63;1.33;;;9.90;61.90;;;8.20;67.93;103298.84;8424954;27;20057;-84
2021/12/17 12:57:46;;;;;;;3.38;1.55;;;10.20;62.20;;;8.31;67.91;103310.06;8412783;27;20054;-83
2021/12/17 13:02:08;;;;;;;4.40;1.77;;;9.90;61.90;;;8.16;67.92;103289.31;8432871;27;20024;-83
2021/12/17 13:06:30;;;;;;;6.95;1.75;;;9.90;62.00;;;8.25;68.13;103289.28;8415471;27;20050;-84
2021/12/17 13:11:04;;;;;;;2.92;1.52;;;10.00;62.10;;;8.30;67.99;103300.53;8428772;27;20487;-84
2021/12/17 13:15:50;;;;;;;3.13;1.48;;;10.00;61.80;;;8.21;67.55;103284.97;8416979;27;20043;-82
2021/12/17 13:20:41;;;;;;;2.53;1.50;;;10.00;62.60;;;8.37;67.90;103299.66;8400278;27;20038;-83
2021/12/17 13:24:59;;;;;;;1.67;1.45;;;10.00;61.80;;;8.35;67.92;103301.38;8420000;27;20046;-82
2021/12/17 13:29:30;;;;;;;6.20;1.85;;;9.90;61.80;;;8.38;67.64;103313.53;8395553;27;20054;-83
2021/12/17 13:33:51;;;;;;;2.95;1.80;;;10.00;61.70;;;8.37;67.76;103306.56;8407336;28;20414;-82
2021/12/17 13:38:16;;;;;;;1.60;1.20;;;10.00;61.70;;;8.31;67.56;103285.78;8411847;27;20100;-83
2021/12/17 13:42:46;;;;;;;7.68;2.03;;;10.00;61.70;;;8.46;67.49;103300.50;8407750;27;20389;-83
2021/12/17 13:47:36;;;;;;;4.93;1.70;;;10.00;61.70;;;8.31;67.92;103297.06;8418617;27;20639;-84
2021/12/17 13:51:57;;;;;;;4.28;1.67;;;10.10;62.20;;;8.48;67.90;103327.38;8413999;28;20038;-83
2021/12/17 13:56:19;;;;;;;3.70;1.50;;;10.10;61.50;;;8.48;67.61;103316.97;8394040;27;20046;-82
2021/12/17 14:00:46;;;;;;;2.60;1.38;;;10.00;61.50;;;8.32;67.54;103298.81;8421425;28;20042;-82
2021/12/17 14:05:28;;;;;;;2.92;1.52;;;10.10;61.50;;;8.43;67.62;103308.34;8410580;28;20035;-82
2021/12/17 14:10:05;;;;;;;4.43;1.70;;;10.10;61.30;;;8.46;67.46;103319.59;8400303;28;20058;-82
2021/12/17 14:14:28;;;;;;;2.00;1.30;;;10.10;61.10;;;8.48;67.59;103320.47;8388264;28;20042;-82
2021/12/17 14:18:57;;;;;;;5.28;1.60;;;10.10;61.30;;;8.33;67.44;103289.25;8404864;28;20492;-82
2021/12/17 14:23:25;;;;;;;4.38;1.48;;;10.10;61.20;;;8.40;67.53;103301.41;8397921;28;20506;-82
2021/12/17 14:27:49;;;;;;;4.30;1.90;;;10.10;61.40;;;8.49;67.48;103316.13;8395484;28;20044;-83
2021/12/17 14:32:18;;;;;;;2.70;1.48;;;10.10;61.40;;;8.48;67.42;103315.25;8398185;28;20487;-83
2021/12/17 14:36:41;;;;;;;5.40;1.45;;;10.10;61.10;;;8.46;67.58;103316.13;8412779;28;20040;-83
2021/12/17 14:41:06;;;;;;;2.22;1.20;;;10.20;61.50;;;8.51;67.71;103323.06;8416484;28;20040;-83
2021/12/17 14:45:34;;;;;;;3.33;1.85;;;10.00;61.30;;;8.48;67.62;103320.47;8414472;28;20109;-83
2021/12/17 15:03:48;;;;;;;3.42;1.90;;;10.10;61.30;;;8.48;67.36;103336.09;8422159;27;20032;-83
2021/12/17 15:08:10;;;;;;;5.82;1.70;;;10.20;61.20;;;8.43;67.27;103318.75;8418989;27;20042;-82
2021/12/17 15:16:54;;;;;;;5.10;1.50;;;10.10;60.70;;;8.41;67.36;103332.63;8421320;27;20042;-90
2021/12/17 15:21:15;;;;;;;2.70;1.52;;;10.10;61.30;;;8.40;67.38;103330.06;8421950;27;20487;-83
2021/12/17 15:25:39;;;;;;;4.07;1.70;;;10.10;60.60;;;8.48;67.25;103343.00;8432877;27;20032;-82
2021/12/17 15:30:05;;;;;;;2.40;1.08;;;10.10;60.40;;;8.39;67.40;103325.69;8445011;27;20040;-82
2021/12/17 15:34:27;;;;;;;2.15;1.40;;;10.00;60.30;;;8.36;67.57;103321.34;8417978;27;20036;-82
2021/12/17 15:38:48;;;;;;;2.80;1.38;;;10.00;60.50;;;8.33;67.02;103317.88;8425767;27;20039;-81
2021/12/17 15:43:15;;;;;;;1.48;0.98;;;10.00;60.20;;;8.41;67.14;103331.78;8427044;27;20054;-82
2021/12/17 15:47:38;;;;;;;2.22;1.35;;;10.00;60.20;;;8.37;67.39;103333.50;8411903;27;20042;-83
2021/12/17 15:52:00;;;;;;;5.45;1.58;;;9.90;60.10;;;8.23;67.24;103304.03;8439497;27;20118;-82
2021/12/17 15:56:23;;;;;;;2.35;1.10;;;9.90;59.90;;;8.28;66.93;103312.69;8444408;27;20041;-82
2021/12/17 16:00:45;;;;;;;2.50;1.05;;;10.00;59.80;;;8.38;67.23;103334.34;8441483;27;20034;-82
2021/12/17 16:05:09;;;;;;;2.72;1.63;;;9.90;59.70;;;8.33;67.25;103334.38;8447072;27;20043;-82
2021/12/17 16:18:57;;;;;;;1.95;1.13;;;9.90;59.90;;;8.27;67.07;103331.78;8448101;27;20040;-83
2021/12/17 16:23:19;;;;;;;2.30;1.23;;;9.80;59.90;;;8.20;67.07;103320.53;8419084;28;20031;-83
2021/12/17 16:27:40;;;;;;;1.85;1.20;;;10.00;60.20;;;8.33;66.95;103341.31;8427614;27;20118;-82
2021/12/17 16:32:02;;;;;;;1.35;0.93;;;9.90;60.10;;;8.25;67.11;103330.94;8430801;27;20376;-83
2021/12/17 16:36:25;;;;;;;3.22;1.63;;;9.90;60.20;;;8.25;66.86;103323.13;8436172;27;20031;-83
2021/12/17 16:40:47;;;;;;;2.65;1.10;;;9.90;60.10;;;8.26;67.14;103318.78;8429861;27;20561;-83
2021/12/17 16:49:43;;;;;;;2.38;1.10;;;9.90;59.90;;;8.25;66.95;103328.31;8427819;27;20031;-82
2021/12/17 16:54:05;;;;;;;4.78;1.92;;;9.90;60.00;;;8.34;67.18;103350.84;8438584;27;20081;-82
2021/12/17 16:58:27;;;;;;;4.35;1.85;;;9.90;59.90;;;8.17;67.02;103336.16;8407794;28;20645;-82
2021/12/17 17:02:50;;;;;;;4.55;1.50;;;9.90;59.90;;;8.26;67.15;103361.28;8437467;27;20400;-83
2021/12/17 17:07:12;;;;;;;2.53;1.63;;;9.90;59.90;;;8.20;66.70;103336.13;8431742;27;20032;-82
2021/12/17 17:11:36;;;;;;;1.98;1.20;;;9.80;59.90;;;8.24;66.94;103346.56;8440161;27;20046;-82
2021/12/17 17:16:04;;;;;;;1.80;1.42;;;9.90;60.80;;;8.19;66.74;103333.56;8434007;28;20480;-82
2021/12/17 17:20:26;;;;;;;2.00;1.70;;;9.80;59.90;;;8.12;66.82;103327.50;8411553;28;20032;-83
2021/12/17 17:24:47;;;;;;;5.38;1.52;;;9.80;59.70;;;8.22;66.80;103348.31;8411364;27;20592;-82
2021/12/17 17:29:09;;;;;;;3.13;1.67;;;9.70;59.70;;;8.17;67.05;103337.91;8436514;28;20046;-83
2021/12/17 17:33:32;;;;;;;2.65;1.60;;;9.80;59.80;;;8.10;66.71;103316.25;8440827;28;20833;-82
2021/12/17 17:37:53;;;;;;;2.15;1.73;;;9.70;59.70;;;8.10;67.00;103330.97;8431158;28;20042;-83
2021/12/17 17:42:15;;;;;;;2.30;1.98;;;9.80;59.80;;;8.02;66.71;103309.31;8435684;27;20038;-83
2021/12/17 17:46:37;;;;;;;5.05;2.15;;;9.70;59.80;;;8.08;66.67;103309.31;8431885;27;20039;-83
2021/12/17 17:50:59;;;;;;;4.50;1.70;;;9.70;59.80;;;8.13;66.42;103323.19;8429336;27;20043;-83
2021/12/17 17:55:21;;;;;;;3.40;2.05;;;9.70;59.90;;;8.14;66.78;103337.91;8433212;27;20057;-83
2021/12/17 17:59:48;;;;;;;3.40;1.70;;;9.70;59.90;;;8.03;67.02;103306.72;8449484;28;20117;-83
2021/12/17 18:04:09;;;;;;;3.45;1.55;;;9.70;59.90;;;8.02;66.93;103319.72;8429589;28;20053;-83
2021/12/17 18:08:31;;;;;;;2.05;1.33;;;9.70;60.00;;;7.95;66.74;103311.94;8421387;28;20032;-83
2021/12/17 18:12:56;;;;;;;3.50;1.88;;;9.70;59.90;;;7.93;66.59;103321.47;8425261;28;20046;-82
2021/12/17 18:17:17;;;;;;;2.63;1.80;;;9.70;59.90;;;8.07;66.66;103339.66;8433841;28;20048;-83
2021/12/17 18:21:39;;;;;;;4.97;2.10;;;9.60;59.80;;;7.86;66.63;103298.97;8436571;28;20028;-82
2021/12/17 18:26:01;;;;;;;3.60;1.90;;;9.60;59.80;;;7.95;66.48;103311.06;8434694;28;20127;-83
2021/12/17 18:30:24;;;;;;;3.92;1.73;;;9.60;59.80;;;7.77;66.72;103285.94;8429872;27;20043;-83
2021/12/17 18:34:46;;;;;;;2.60;1.67;;;9.60;59.90;;;8.00;66.52;103322.34;8417810;27;20044;-85
2021/12/17 18:39:08;;;;;;;2.67;1.50;;;9.60;59.80;;;7.93;66.83;103305.00;8411357;27;20043;-83
2021/12/17 18:48:17;;;;;;;6.13;2.00;;;9.60;59.90;;;7.91;66.34;103320.63;8428381;27;20036;-83
2021/12/17 18:52:39;;;;;;;4.38;2.00;;;9.60;59.90;;;7.81;66.94;103311.09;8421970;27;20040;-83
2021/12/17 18:57:01;;;;;;;2.10;1.60;;;9.50;59.80;;;7.92;66.96;103330.16;8419489;27;20036;-83
2021/12/17 19:01:23;;;;;;;3.63;2.08;;;9.50;60.00;;;7.97;67.20;103325.81;8413292;27;20039;-83
2021/12/17 19:05:45;;;;;;;5.40;1.73;;;9.40;59.90;;;7.87;66.74;103297.22;8412418;27;20412;-83
2021/12/17 19:10:08;;;;;;;2.28;1.58;;;9.40;59.90;;;7.59;66.54;103242.66;8436749;27;20043;-83
2021/12/17 19:14:32;;;;;;;4.85;1.63;;;9.50;60.20;;;7.88;66.58;103289.38;8413809;27;20043;-83
2021/12/17 19:23:21;;;;;;;2.40;1.75;;;9.50;60.00;;;7.92;66.66;103314.53;8414563;27;20028;-83
2021/12/17 19:27:45;;;;;;;2.63;1.95;;;9.50;60.10;;;7.85;66.70;103310.22;8434840;27;20040;-83
2021/12/17 19:32:07;;;;;;;6.18;1.90;;;9.50;60.30;;;7.81;66.52;103315.44;8408854;27;20040;-83
2021/12/17 19:36:29;;;;;;;2.92;1.60;;;9.50;60.40;;;7.82;66.57;103310.22;8411854;27;20036;-83
2021/12/17 19:40:51;;;;;;;2.08;1.65;;;9.50;60.60;;;7.73;66.64;103297.25;8411844;28;20495;-84
2021/12/17 19:45:14;;;;;;;4.90;2.10;;;9.50;60.50;;;7.88;66.60;103325.81;8430087;27;20040;-84
2021/12/17 19:49:44;;;;;;;3.42;2.47;;;9.50;60.40;;;7.93;66.66;103339.69;8437369;27;20505;-83
2021/12/17 19:54:08;;;;;;;7.10;2.10;;;9.50;60.60;;;7.89;66.59;103335.38;8419183;27;20043;-83
2021/12/17 19:58:30;;;;;;;3.20;1.65;;;9.50;60.60;;;7.96;67.01;103357.88;8420664;27;20074;-83
2021/12/17 20:02:55;;;;;;;4.07;1.98;;;9.60;60.70;;;7.90;66.72;103342.28;8415160;27;20035;-83
2021/12/17 20:07:16;;;;;;;3.38;2.20;;;9.40;60.50;;;7.86;66.97;103343.19;8445353;27;20456;-84
2021/12/17 20:11:39;;;;;;;2.55;2.20;;;9.50;60.50;;;7.75;66.96;103329.34;8461192;27;20035;-83
2021/12/17 20:16:01;;;;;;;4.80;2.60;;;9.60;60.70;;;8.02;67.08;103361.34;8422170;27;20046;-84
2021/12/17 20:20:23;;;;;;;4.80;1.92;;;9.50;60.80;;;7.92;66.86;103347.50;8438108;27;20043;-83
2021/12/17 20:24:45;;;;;;;3.58;1.77;;;9.60;60.90;;;8.04;66.83;103362.22;8420107;27;20028;-83
2021/12/17 20:29:08;;;;;;;2.67;1.77;;;9.60;60.80;;;8.01;67.00;103354.41;8438408;27;20050;-82
2021/12/17 20:33:30;;;;;;;4.55;2.30;;;9.60;60.80;;;8.09;66.86;103357.88;8439408;27;21645;-84
2021/12/17 20:37:52;;;;;;;1.95;1.70;;;9.60;60.80;;;7.99;66.59;103331.00;8443463;27;20501;-83
2021/12/17 20:42:22;;;;;;;2.40;1.77;;;9.70;60.90;;;8.01;66.79;103338.81;8412108;27;20122;-83
2021/12/17 20:46:53;;;;;;;5.80;2.83;;;9.60;60.70;;;7.89;66.98;103326.69;8415279;27;20571;-83
2021/12/17 20:51:15;;;;;;;1.95;1.75;;;9.70;60.80;;;8.06;66.75;103332.72;8407263;27;20126;-84
2021/12/17 20:55:41;;;;;;;3.63;2.30;;;9.70;60.80;;;7.95;66.97;103334.50;8441129;27;20040;-84
2021/12/17 21:00:05;;;;;;;3.92;2.30;;;9.60;60.70;;;8.06;66.66;103369.16;8425117;27;20131;-83
2021/12/17 21:04:27;;;;;;;5.20;2.30;;;9.70;60.80;;;8.06;66.86;103371.75;8440879;27;20042;-83
2021/12/17 21:08:54;;;;;;;5.53;2.13;;;9.60;60.70;;;7.95;66.67;103350.97;8453716;27;20058;-83
2021/12/17 21:13:17;;;;;;;2.92;2.03;;;9.60;60.70;;;8.08;66.91;103367.41;8453884;27;20130;-82
2021/12/17 21:17:42;;;;;;;3.03;2.17;;;9.50;60.80;;;8.02;67.04;103348.34;8439567;27;20044;-83
2021/12/17 21:22:07;;;;;;;3.17;2.40;;;9.60;60.80;;;8.09;66.93;103352.66;8430662;27;20121;-83
2021/12/17 21:26:33;;;;;;;2.70;1.80;;;9.70;61.00;;;8.06;66.98;103363.94;8442920;27;20135;-83
2021/12/17 21:30:57;;;;;;;4.28;2.10;;;9.70;60.90;;;8.07;67.00;103357.00;8450191;27;20473;-83
2021/12/17 21:35:21;;;;;;;4.25;2.45;;;9.70;60.80;;;8.07;66.83;103359.59;8454684;27;20122;-84
2021/12/17 21:39:43;;;;;;;3.45;2.63;;;9.70;60.80;;;8.03;66.85;103352.69;8443596;27;20145;-83
2021/12/17 21:44:07;;;;;;;2.40;2.20;;;9.70;60.80;;;8.12;66.88;103381.28;8468010;27;20126;-83